Time;durP1;ratioP1;P1;durP2;ratioP2;P2;SDS_P1;SDS_P2;PMS_P1;PMS_P2;Temp;Humidity;BMP_temperature;BMP_pressure;BME280_temperature;BME280_humidity;BME280_pressure;Samples;Min_cycle;Max_cycle;Signal;HPM_P1;HPM_P2
2021/01/28 00:01:39;;;;;;;8.10;3.33;;;;;;;-0.57;87.60;100275.03;5090971;28;20036;-79
2021/01/28 00:04:04;;;;;;;5.82;3.00;;;;;;;-0.59;87.83;100270.94;5071370;28;20021;-79
2021/01/28 00:06:29;;;;;;;5.72;3.60;;;;;;;-0.62;87.70;100274.88;5085662;28;20491;-79
2021/01/28 00:08:55;;;;;;;6.72;4.32;;;;;;;-0.60;87.53;100271.94;5091051;28;20036;-80
2021/01/28 00:11:20;;;;;;;4.85;3.40;;;;;;;-0.61;87.40;100271.13;5087799;28;20016;-78
2021/01/28 00:13:46;;;;;;;5.60;3.92;;;;;;;-0.61;87.53;100271.13;5090618;28;20039;-79
2021/01/28 00:16:11;;;;;;;6.63;3.90;;;;;;;-0.61;87.80;100276.50;5085980;28;20029;-79
2021/01/28 00:18:37;;;;;;;10.30;4.43;;;;;;;-0.58;87.98;100280.59;5090989;28;20141;-79
2021/01/28 00:21:02;;;;;;;7.28;4.35;;;;;;;-0.58;87.50;100277.94;5089840;28;20024;-79
2021/01/28 00:23:28;;;;;;;9.75;4.75;;;;;;;-0.57;87.47;100277.72;5090146;28;20031;-79
2021/01/28 00:25:53;;;;;;;6.22;3.60;;;;;;;-0.55;87.66;100275.63;5087600;28;20358;-79
2021/01/28 00:28:20;;;;;;;6.85;4.07;;;;;;;-0.57;87.44;100277.72;5090896;28;20074;-78
2021/01/28 00:30:48;;;;;;;6.90;4.43;;;;;;;-0.57;87.58;100276.91;5073239;28;20027;-78
2021/01/28 00:33:15;;;;;;;6.60;4.60;;;;;;;-0.55;87.47;100267.59;5073661;28;20028;-80
2021/01/28 00:35:42;;;;;;;5.30;3.30;;;;;;;-0.56;87.39;100271.31;5086958;28;20044;-79
2021/01/28 00:38:10;;;;;;;5.18;3.30;;;;;;;-0.61;87.49;100265.78;5080011;28;20402;-80
2021/01/28 00:40:35;;;;;;;5.13;2.60;;;;;;;-0.66;87.06;100265.59;5086959;28;20064;-78
2021/01/28 00:43:01;;;;;;;5.93;2.72;;;;;;;-0.73;86.64;100273.66;5090047;28;20020;-80
2021/01/28 00:45:28;;;;;;;4.10;2.45;;;;;;;-0.77;87.02;100268.94;5090716;28;20500;-80
2021/01/28 00:47:54;;;;;;;4.75;2.40;;;;;;;-0.79;86.98;100273.69;5090533;28;20055;-79
2021/01/28 00:50:20;;;;;;;3.47;1.80;;;;;;;-0.82;86.93;100269.59;5093069;28;20572;-79
2021/01/28 00:52:45;;;;;;;3.17;2.08;;;;;;;-0.93;86.87;100268.41;5090194;28;20063;-79
2021/01/28 00:55:12;;;;;;;3.78;2.22;;;;;;;-0.99;86.91;100263.88;5090170;28;20032;-79
2021/01/28 00:57:38;;;;;;;2.80;1.88;;;;;;;-1.04;87.16;100269.03;5095203;28;20107;-79
2021/01/28 01:00:10;;;;;;;4.13;2.30;;;;;;;-1.06;87.01;100273.78;5093074;28;20031;-79
2021/01/28 01:02:35;;;;;;;6.20;2.25;;;;;;;-1.09;86.63;100273.38;5095069;28;20020;-79
2021/01/28 01:05:00;;;;;;;4.30;2.47;;;;;;;-1.16;86.54;100279.56;5093280;28;20028;-78
2021/01/28 01:07:26;;;;;;;4.82;2.15;;;;;;;-1.19;86.65;100279.16;5092238;28;20032;-79
2021/01/28 01:09:51;;;;;;;5.20;2.47;;;;;;;-1.23;86.92;100272.56;5093121;28;20028;-78
2021/01/28 01:12:17;;;;;;;7.20;2.40;;;;;;;-1.30;86.65;100271.78;5093070;28;20024;-78
2021/01/28 01:14:42;;;;;;;3.63;2.42;;;;;;;-1.35;86.96;100267.88;5094764;28;21193;-79
2021/01/28 01:17:07;;;;;;;5.45;2.97;;;;;;;-1.39;86.96;100276.53;5093884;28;20023;-77
2021/01/28 01:19:33;;;;;;;5.90;2.95;;;;;;;-1.45;87.03;100275.47;5094935;28;20435;-78
2021/01/28 01:21:58;;;;;;;5.40;2.70;;;;;;;-1.51;86.59;100270.97;5092933;28;20024;-79
2021/01/28 01:24:24;;;;;;;5.63;2.60;;;;;;;-1.52;86.74;100274.69;5092278;28;20032;-79
2021/01/28 01:26:49;;;;;;;5.72;2.63;;;;;;;-1.52;86.95;100265.84;5092767;28;20028;-79
2021/01/28 01:29:15;;;;;;;4.68;2.75;;;;;;;-1.54;86.64;100268.72;5094893;28;20024;-78
2021/01/28 01:31:40;;;;;;;4.25;2.78;;;;;;;-1.57;86.59;100267.28;5079747;28;20043;-79
2021/01/28 01:34:05;;;;;;;5.05;2.22;;;;;;;-1.59;86.55;100272.00;5092817;28;20023;-78
2021/01/28 01:36:31;;;;;;;6.82;2.80;;;;;;;-1.65;86.61;100266.69;5094337;28;20065;-78
2021/01/28 01:38:56;;;;;;;4.60;2.53;;;;;;;-1.68;86.75;100273.25;5086218;28;20528;-79
2021/01/28 01:41:24;;;;;;;4.93;2.88;;;;;;;-1.67;86.73;100277.56;5093535;28;20024;-77
2021/01/28 01:44:00;;;;;;;4.53;3.08;;;;;;;-1.67;86.54;100276.75;5076299;28;20089;-80
2021/01/28 01:46:25;;;;;;;4.75;2.90;;;;;;;-1.68;86.63;100281.28;5093674;28;20024;-79
2021/01/28 01:48:52;;;;;;;3.88;2.78;;;;;;;-1.71;86.57;100280.88;5076295;28;20465;-78
2021/01/28 01:51:56;;;;;;;4.82;2.90;;;;;;;-1.75;86.67;100276.94;5065682;28;20474;-78
2021/01/28 01:54:48;;;;;;;4.97;2.60;;;;;;;-1.79;86.50;100279.22;5015151;28;20376;-78
2021/01/28 01:57:19;;;;;;;8.88;3.33;;;;;;;-1.85;86.35;100280.84;5030196;28;20116;-79
2021/01/28 01:59:47;;;;;;;5.32;3.42;;;;;;;-1.90;86.28;100277.97;5042206;28;20071;-78
2021/01/28 02:02:14;;;;;;;5.97;3.90;;;;;;;-1.92;86.22;100273.88;5092993;28;20530;-79
2021/01/28 02:04:40;;;;;;;3.60;2.88;;;;;;;-1.92;86.44;100277.34;5091567;28;20504;-78
2021/01/28 02:07:09;;;;;;;3.50;2.28;;;;;;;-1.92;86.47;100274.69;5090993;28;20028;-79
2021/01/28 02:09:35;;;;;;;3.85;3.08;;;;;;;-1.98;86.56;100280.84;5076177;28;20027;-77
2021/01/28 02:12:00;;;;;;;5.38;3.25;;;;;;;-2.04;86.56;100277.13;5093239;28;20069;-79
2021/01/28 02:14:26;;;;;;;5.60;2.70;;;;;;;-2.08;86.13;100281.22;5093757;28;20330;-79
2021/01/28 02:17:03;;;;;;;3.60;2.60;;;;;;;-2.08;86.66;100272.41;5071877;28;20028;-79
2021/01/28 02:19:47;;;;;;;4.30;2.70;;;;;;;-2.08;86.29;100277.75;5072080;28;20030;-79
2021/01/28 02:22:13;;;;;;;4.78;3.05;;;;;;;-2.09;86.41;100278.78;5086193;28;20039;-78
2021/01/28 02:24:49;;;;;;;3.47;2.55;;;;;;;-2.09;86.14;100268.09;5072581;28;20467;-79
2021/01/28 02:27:14;;;;;;;3.40;2.28;;;;;;;-2.12;85.93;100271.19;5071875;28;20032;-79
2021/01/28 02:29:40;;;;;;;4.32;3.05;;;;;;;-2.16;86.29;100280.59;5080645;28;20431;-78
2021/01/28 02:32:05;;;;;;;5.25;3.28;;;;;;;-2.15;86.16;100272.41;5091196;28;20042;-80
2021/01/28 02:34:31;;;;;;;5.15;3.55;;;;;;;-2.18;86.44;100275.47;5091592;28;20034;-79
2021/01/28 02:36:56;;;;;;;4.18;2.50;;;;;;;-2.19;86.02;100273.00;5091204;28;20097;-77
2021/01/28 02:39:25;;;;;;;4.45;2.80;;;;;;;-2.24;86.46;100274.44;5091736;28;20113;-79
2021/01/28 02:42:05;;;;;;;4.47;2.70;;;;;;;-2.28;86.26;100275.88;5074849;28;20066;-80
2021/01/28 02:44:30;;;;;;;4.07;2.63;;;;;;;-2.27;86.02;100276.69;5070049;28;20036;-78
2021/01/28 02:46:56;;;;;;;4.25;2.75;;;;;;;-2.24;86.52;100277.13;5091241;28;20032;-79
2021/01/28 02:49:21;;;;;;;3.30;2.97;;;;;;;-2.26;86.30;100268.47;5092463;28;20413;-80
2021/01/28 02:51:47;;;;;;;7.68;2.78;;;;;;;-2.25;86.23;100264.78;5088282;28;20038;-77
2021/01/28 02:54:12;;;;;;;3.30;2.38;;;;;;;-2.26;86.04;100257.81;5091814;28;20030;-80
2021/01/28 02:56:38;;;;;;;5.28;3.08;;;;;;;-2.26;86.15;100265.81;5091363;28;20413;-78
2021/01/28 02:59:04;;;;;;;5.65;2.90;;;;;;;-2.28;85.70;100265.19;5091928;28;20035;-79
2021/01/28 03:01:29;;;;;;;4.72;3.25;;;;;;;-2.27;86.38;100263.31;5073003;28;20028;-80
2021/01/28 03:03:54;;;;;;;5.97;2.70;;;;;;;-2.26;86.16;100257.81;5092094;28;20392;-80
2021/01/28 03:06:20;;;;;;;3.40;2.25;;;;;;;-2.25;86.42;100258.63;5092153;28;20043;-79
2021/01/28 03:08:45;;;;;;;4.20;2.30;;;;;;;-2.28;86.40;100256.34;5091678;28;20035;-79
2021/01/28 03:11:11;;;;;;;5.45;2.63;;;;;;;-2.32;86.26;100250.59;5073442;28;20069;-78
2021/01/28 03:13:36;;;;;;;5.20;3.00;;;;;;;-2.35;86.32;100253.66;5091608;28;20389;-79
2021/01/28 03:16:01;;;;;;;4.32;2.70;;;;;;;-2.38;86.46;100264.75;5090385;28;20492;-79
2021/01/28 03:18:27;;;;;;;3.60;1.88;;;;;;;-2.42;86.47;100252.03;5091883;28;20028;-79
2021/01/28 03:20:52;;;;;;;2.80;2.28;;;;;;;-2.44;86.48;100254.06;5090187;28;20121;-79
2021/01/28 03:23:19;;;;;;;3.20;1.98;;;;;;;-2.46;86.40;100259.59;5091368;28;20048;-79
2021/01/28 03:25:44;;;;;;;4.63;1.85;;;;;;;-2.46;86.58;100256.91;5091078;28;20127;-79
2021/01/28 03:28:10;;;;;;;3.72;2.25;;;;;;;-2.43;86.16;100253.84;5091848;28;20055;-78
2021/01/28 03:30:41;;;;;;;4.13;2.50;;;;;;;-2.37;86.18;100250.38;5090009;28;20016;-76
2021/01/28 03:33:08;;;;;;;4.28;2.22;;;;;;;-2.36;85.96;100262.69;5080464;28;20054;-79
2021/01/28 03:35:33;;;;;;;3.22;2.08;;;;;;;-2.38;86.46;100256.72;5087867;28;20093;-78
2021/01/28 03:37:59;;;;;;;2.90;2.20;;;;;;;-2.44;85.91;100260.22;5089219;28;20036;-77
2021/01/28 03:40:26;;;;;;;4.38;2.28;;;;;;;-2.53;86.31;100258.75;5067762;28;20041;-79
2021/01/28 03:42:51;;;;;;;3.83;2.22;;;;;;;-2.61;86.48;100253.59;5070212;28;20094;-80
2021/01/28 03:45:17;;;;;;;3.58;2.10;;;;;;;-2.69;86.30;100246.59;5092495;28;20052;-80
2021/01/28 03:47:43;;;;;;;4.22;2.08;;;;;;;-2.75;86.26;100253.56;5091199;28;20019;-78
2021/01/28 03:50:09;;;;;;;3.33;1.92;;;;;;;-2.80;86.45;100250.66;5091148;28;20099;-79
2021/01/28 03:52:34;;;;;;;3.47;2.17;;;;;;;-2.83;86.10;100251.06;5089796;28;20435;-77
2021/01/28 03:55:01;;;;;;;5.25;2.30;;;;;;;-2.82;86.34;100258.03;5091054;28;20040;-79
2021/01/28 03:57:26;;;;;;;4.05;2.22;;;;;;;-2.78;86.01;100259.28;5090072;28;20396;-79
2021/01/28 03:59:51;;;;;;;2.97;2.10;;;;;;;-2.74;85.84;100260.53;5090684;28;20031;-79
2021/01/28 04:02:17;;;;;;;5.57;1.63;;;;;;;-2.68;86.09;100270.41;5084965;28;20080;-79
2021/01/28 04:04:42;;;;;;;5.43;2.35;;;;;;;-2.61;86.31;100258.94;5091130;28;20073;-79
2021/01/28 04:07:08;;;;;;;4.53;2.20;;;;;;;-2.57;86.43;100263.66;5082318;28;20410;-78
2021/01/28 04:09:33;;;;;;;5.20;2.22;;;;;;;-2.51;86.46;100264.69;5087062;28;20032;-80
2021/01/28 04:11:59;;;;;;;4.07;2.30;;;;;;;-2.49;86.16;100262.66;5082350;28;20025;-80
2021/01/28 04:14:24;;;;;;;4.82;2.25;;;;;;;-2.51;85.93;100260.22;5067750;28;20034;-79
2021/01/28 04:16:50;;;;;;;5.55;2.03;;;;;;;-2.53;85.88;100256.91;5085258;28;20032;-81
2021/01/28 04:19:15;;;;;;;5.38;2.67;;;;;;;-2.52;86.09;100260.41;5082737;28;20016;-80
2021/01/28 04:21:40;;;;;;;5.78;3.15;;;;;;;-2.56;85.81;100256.50;5090933;28;20461;-79
2021/01/28 04:24:06;;;;;;;4.55;3.00;;;;;;;-2.64;85.82;100259.34;5093878;28;20039;-79
2021/01/28 04:26:32;;;;;;;3.42;2.58;;;;;;;-2.76;86.10;100261.75;5093073;28;20065;-78
2021/01/28 04:28:57;;;;;;;4.68;2.50;;;;;;;-2.84;86.20;100256.59;5093923;28;20023;-80
2021/01/28 04:31:22;;;;;;;5.60;2.85;;;;;;;-2.95;85.99;100248.16;5076399;28;20053;-81
2021/01/28 04:33:48;;;;;;;9.23;3.10;;;;;;;-3.03;85.90;100244.81;5094436;28;20373;-78
2021/01/28 04:36:13;;;;;;;6.10;3.30;;;;;;;-3.09;86.37;100245.59;5093582;28;20020;-80
2021/01/28 04:38:39;;;;;;;5.15;2.88;;;;;;;-3.14;86.19;100247.03;5077805;28;20031;-80
2021/01/28 04:41:07;;;;;;;5.40;2.95;;;;;;;-3.15;85.98;100248.03;5095601;28;20020;-79
2021/01/28 04:43:32;;;;;;;6.80;3.30;;;;;;;-3.14;86.39;100243.53;5094962;28;20020;-80
2021/01/28 04:46:01;;;;;;;5.40;3.35;;;;;;;-3.13;85.79;100246.00;5075483;28;20028;-79
2021/01/28 04:48:28;;;;;;;6.03;2.95;;;;;;;-3.09;86.15;100242.94;5077108;28;20085;-79
2021/01/28 04:50:55;;;;;;;4.47;2.80;;;;;;;-3.05;86.54;100236.22;5093384;28;20024;-79
2021/01/28 04:53:21;;;;;;;5.60;2.72;;;;;;;-3.02;85.94;100230.47;5074846;28;20517;-79
2021/01/28 04:55:52;;;;;;;7.07;3.65;;;;;;;-3.01;86.51;100224.09;5094208;28;20028;-78
2021/01/28 04:58:17;;;;;;;4.78;2.50;;;;;;;-2.98;86.13;100226.38;5091545;28;20032;-80
2021/01/28 05:00:43;;;;;;;7.03;2.78;;;;;;;-2.95;85.81;100233.97;5093805;28;20546;-79
2021/01/28 05:03:17;;;;;;;7.25;3.30;;;;;;;-2.91;86.23;100235.25;5058758;28;20477;-80
2021/01/28 05:05:43;;;;;;;5.55;2.95;;;;;;;-2.88;86.52;100237.50;5072500;28;20036;-79
2021/01/28 05:08:08;;;;;;;3.00;2.08;;;;;;;-2.85;85.89;100238.94;5094603;28;20032;-80
2021/01/28 05:10:44;;;;;;;3.70;2.47;;;;;;;-2.85;85.87;100229.09;5085419;28;20203;-79
2021/01/28 05:13:10;;;;;;;4.63;2.40;;;;;;;-2.83;86.43;100234.25;5092762;28;20418;-80
2021/01/28 05:15:37;;;;;;;5.65;2.90;;;;;;;-2.82;85.62;100228.69;5093722;28;20150;-79
2021/01/28 05:18:04;;;;;;;6.28;3.17;;;;;;;-2.84;86.14;100220.06;5089565;28;20024;-79
2021/01/28 05:20:29;;;;;;;4.57;2.58;;;;;;;-2.84;86.33;100217.41;5093648;28;20106;-79
2021/01/28 05:23:05;;;;;;;6.60;2.85;;;;;;;-2.81;85.67;100216.16;5093500;28;20477;-78
2021/01/28 05:25:37;;;;;;;3.47;2.20;;;;;;;-2.81;86.30;100216.16;5077346;28;20024;-78
2021/01/28 05:28:21;;;;;;;3.30;2.38;;;;;;;-2.80;86.14;100217.84;5088567;28;20025;-80
2021/01/28 05:30:47;;;;;;;5.13;3.10;;;;;;;-2.77;86.04;100209.44;5093970;28;20044;-81
2021/01/28 05:33:31;;;;;;;7.25;3.65;;;;;;;-2.76;86.07;100219.06;5074905;28;20054;-80
2021/01/28 05:36:15;;;;;;;5.88;3.33;;;;;;;-2.76;86.17;100213.72;5089079;28;20028;-81
2021/01/28 05:38:55;;;;;;;4.22;2.60;;;;;;;-2.77;86.11;100210.25;5092260;28;20028;-79
2021/01/28 05:41:42;;;;;;;5.15;3.42;;;;;;;-2.80;85.85;100213.31;5059280;28;20052;-78
2021/01/28 05:44:22;;;;;;;4.80;2.97;;;;;;;-2.80;85.61;100221.31;5091668;28;20047;-79
2021/01/28 05:47:18;;;;;;;5.35;3.20;;;;;;;-2.79;86.03;100214.94;5093504;28;20023;-78
2021/01/28 05:49:44;;;;;;;5.65;3.70;;;;;;;-2.75;85.71;100215.41;5081726;28;20034;-80
2021/01/28 05:52:29;;;;;;;6.95;3.60;;;;;;;-2.74;85.54;100209.84;5076234;28;20024;-79
2021/01/28 05:55:21;;;;;;;7.53;3.88;;;;;;;-2.77;85.46;100215.59;5078268;28;20055;-79
2021/01/28 05:57:52;;;;;;;3.50;2.63;;;;;;;-2.78;85.66;100211.28;5090422;28;20408;-79
2021/01/28 06:00:31;;;;;;;5.90;2.92;;;;;;;-2.80;85.71;100217.84;5092206;28;20107;-79
2021/01/28 06:03:21;;;;;;;5.13;2.45;;;;;;;-2.80;85.39;100213.31;5076463;28;20027;-79
2021/01/28 06:06:08;;;;;;;6.03;2.92;;;;;;;-2.81;85.84;100214.34;5091353;28;20024;-78
2021/01/28 06:08:44;;;;;;;3.47;2.15;;;;;;;-2.78;85.40;100211.28;5083930;28;20099;-78
2021/01/28 06:11:35;;;;;;;5.00;3.25;;;;;;;-2.78;85.68;100221.13;5073681;28;20042;-80
2021/01/28 06:14:13;;;;;;;4.63;2.72;;;;;;;-2.77;85.42;100218.25;5090061;28;20576;-77
2021/01/28 06:16:59;;;;;;;6.45;3.47;;;;;;;-2.78;85.16;100221.94;5091483;28;20465;-79
2021/01/28 06:19:43;;;;;;;3.35;2.25;;;;;;;-2.78;85.50;100232.63;5092019;28;20023;-78
2021/01/28 06:22:45;;;;;;;3.90;1.98;;;;;;;-2.77;85.61;100228.09;5082041;28;20125;-79
2021/01/28 06:25:39;;;;;;;5.88;3.00;;;;;;;-2.74;85.73;100233.84;5088700;28;20748;-77
2021/01/28 06:28:16;;;;;;;6.20;2.22;;;;;;;-2.73;85.74;100224.00;5090896;28;20027;-79
2021/01/28 06:30:50;;;;;;;2.95;2.13;;;;;;;-2.76;85.28;100225.22;5087285;28;20020;-80
2021/01/28 06:33:34;;;;;;;2.75;1.83;;;;;;;-2.77;85.52;100222.75;5081910;28;20158;-81
2021/01/28 06:36:26;;;;;;;7.38;2.08;;;;;;;-2.80;85.11;100223.16;5084679;28;20034;-80
2021/01/28 06:39:09;;;;;;;3.25;2.10;;;;;;;-2.80;85.53;100224.00;5061012;28;20062;-81
2021/01/28 06:41:41;;;;;;;3.63;1.88;;;;;;;-2.78;85.68;100226.47;5074551;28;20046;-81
2021/01/28 06:44:15;;;;;;;1.95;1.70;;;;;;;-2.74;85.66;100225.03;5069280;28;20511;-80
2021/01/28 06:47:14;;;;;;;3.53;1.80;;;;;;;-2.73;85.67;100224.84;5088197;28;20097;-81
2021/01/28 06:49:50;;;;;;;3.50;1.90;;;;;;;-2.73;85.19;100222.19;5064100;28;20401;-79
2021/01/28 06:52:34;;;;;;;4.55;2.00;;;;;;;-2.70;85.21;100224.44;5073514;28;20022;-78
2021/01/28 06:55:27;;;;;;;5.05;2.35;;;;;;;-2.70;85.36;100228.97;5087418;28;20035;-80
2021/01/28 06:58:12;;;;;;;4.22;2.00;;;;;;;-2.68;85.59;100226.88;5033406;28;20036;-76
2021/01/28 07:00:47;;;;;;;3.67;2.38;;;;;;;-2.65;85.61;100221.16;5085573;28;20195;-76
2021/01/28 07:03:39;;;;;;;3.72;2.45;;;;;;;-2.63;85.41;100215.63;5063208;28;20055;-76
2021/01/28 07:06:26;;;;;;;2.70;1.88;;;;;;;-2.63;84.93;100223.63;5084819;28;20027;-76
2021/01/28 07:09:02;;;;;;;3.70;1.95;;;;;;;-2.61;85.46;100229.59;5086813;28;20016;-76
2021/01/28 07:11:38;;;;;;;2.67;1.58;;;;;;;-2.58;85.35;100226.53;5089513;28;20035;-76
2021/01/28 07:14:04;;;;;;;3.05;1.83;;;;;;;-2.58;85.20;100226.53;5067042;28;20047;-74
2021/01/28 07:16:55;;;;;;;5.10;2.15;;;;;;;-2.58;85.33;100232.66;5073151;28;20032;-74
2021/01/28 07:19:28;;;;;;;5.38;2.50;;;;;;;-2.56;85.34;100229.81;5079015;28;20125;-75
2021/01/28 07:21:54;;;;;;;5.78;2.40;;;;;;;-2.54;85.09;100233.09;5065526;28;20491;-76
2021/01/28 07:24:35;;;;;;;6.53;1.88;;;;;;;-2.54;84.87;100228.59;5086799;28;20040;-76
2021/01/28 07:27:06;;;;;;;2.65;1.60;;;;;;;-2.55;84.99;100229.59;5078814;28;20481;-76
2021/01/28 07:29:37;;;;;;;2.53;1.38;;;;;;;-2.55;84.95;100234.13;5088565;28;20077;-75
2021/01/28 07:32:05;;;;;;;3.63;2.03;;;;;;;-2.55;84.97;100236.78;5088438;28;20226;-77
2021/01/28 07:34:30;;;;;;;6.05;1.50;;;;;;;-2.53;84.60;100235.56;5089996;28;20153;-76
2021/01/28 07:36:59;;;;;;;4.70;2.30;;;;;;;-2.53;85.02;100235.56;5072694;28;20024;-76
2021/01/28 07:39:30;;;;;;;4.93;2.40;;;;;;;-2.50;84.72;100239.69;5078027;28;20052;-75
2021/01/28 07:41:57;;;;;;;3.95;2.00;;;;;;;-2.50;84.83;100242.34;5088612;28;20024;-76
2021/01/28 07:44:38;;;;;;;6.70;1.92;;;;;;;-2.52;84.51;100239.06;5070201;28;20234;-76
2021/01/28 07:47:05;;;;;;;4.30;2.72;;;;;;;-2.52;84.96;100242.53;5089101;28;20061;-77
2021/01/28 07:49:32;;;;;;;2.83;1.73;;;;;;;-2.50;84.45;100245.84;5085968;28;20382;-76
2021/01/28 07:51:57;;;;;;;4.85;2.13;;;;;;;-2.49;84.36;100247.47;5096119;28;20107;-76
2021/01/28 07:54:23;;;;;;;4.70;2.08;;;;;;;-2.50;84.74;100245.00;5087295;28;20107;-76
2021/01/28 07:56:51;;;;;;;6.50;2.20;;;;;;;-2.48;84.68;100250.97;5086560;28;20419;-75
2021/01/28 07:59:24;;;;;;;4.28;1.95;;;;;;;-2.46;84.51;100240.91;5087705;28;20032;-77
2021/01/28 08:01:54;;;;;;;3.15;1.63;;;;;;;-2.42;84.65;100246.69;5086743;28;20658;-76
2021/01/28 08:04:30;;;;;;;2.42;1.23;;;;;;;-2.42;84.47;100246.69;5087702;28;20025;-76
2021/01/28 08:06:57;;;;;;;3.22;2.13;;;;;;;-2.45;84.29;100242.56;5054054;28;20028;-76
2021/01/28 08:09:23;;;;;;;3.58;1.58;;;;;;;-2.46;84.43;100247.09;5084983;28;20073;-76
2021/01/28 08:11:55;;;;;;;3.95;2.30;;;;;;;-2.40;84.24;100250.78;5086308;28;20024;-76
2021/01/28 08:14:21;;;;;;;;;;;;;;;-2.37;84.45;100250.38;5070135;28;20441;-76
2021/01/28 08:16:48;;;;;;;6.38;2.10;;;;;;;-2.33;84.08;100251.63;5085043;28;20386;-76
2021/01/28 08:19:15;;;;;;;4.65;2.22;;;;;;;-2.32;83.97;100252.44;5071936;28;20081;-76
2021/01/28 08:21:40;;;;;;;7.95;2.55;;;;;;;-2.32;84.13;100249.75;5085381;28;20032;-76
2021/01/28 08:24:34;;;;;;;2.70;1.73;;;;;;;-2.30;84.44;100256.53;5067042;28;20488;-76
2021/01/28 08:27:14;;;;;;;5.55;2.40;;;;;;;-2.24;84.12;100253.09;5082660;28;20119;-77
2021/01/28 08:29:40;;;;;;;4.53;2.03;;;;;;;-2.24;84.18;100255.75;5081076;28;20104;-76
2021/01/28 08:32:16;;;;;;;2.40;1.50;;;;;;;-2.24;84.23;100245.06;5085533;28;20032;-75
2021/01/28 08:34:41;;;;;;;4.45;1.70;;;;;;;-2.21;83.72;100248.34;5058118;28;20028;-76
2021/01/28 08:37:12;;;;;;;2.38;1.60;;;;;;;-2.24;84.04;100246.91;5085030;28;20031;-76
2021/01/28 08:39:38;;;;;;;2.05;1.60;;;;;;;-2.28;83.64;100241.16;5070673;28;20036;-77
2021/01/28 08:42:25;;;;;;;3.05;1.83;;;;;;;-2.28;83.64;100232.31;5085754;28;20035;-76
2021/01/28 08:45:04;;;;;;;3.65;1.95;;;;;;;-2.24;83.83;100237.06;5077456;28;20039;-77
2021/01/28 08:47:29;;;;;;;4.78;1.98;;;;;;;-2.20;83.60;100244.66;5065903;28;20058;-76
2021/01/28 08:50:24;;;;;;;2.92;1.50;;;;;;;-2.17;84.00;100242.41;5083991;28;20023;-77
2021/01/28 08:52:50;;;;;;;2.00;1.60;;;;;;;-2.13;83.88;100232.13;5083280;28;20044;-77
2021/01/28 08:55:24;;;;;;;2.45;1.65;;;;;;;-2.11;83.47;100238.91;5072377;28;20028;-77
2021/01/28 08:58:13;;;;;;;6.50;1.80;;;;;;;-2.09;83.32;100241.38;5068278;28;20107;-77
2021/01/28 09:00:42;;;;;;;3.55;2.10;;;;;;;-2.07;83.32;100242.00;5084163;28;20070;-77
2021/01/28 09:03:08;;;;;;;3.10;1.88;;;;;;;-2.05;83.81;100247.94;5067322;28;20024;-77
2021/01/28 09:05:33;;;;;;;3.10;1.40;;;;;;;-2.00;83.80;100245.50;5067288;28;20495;-77
2021/01/28 09:08:09;;;;;;;1.92;1.42;;;;;;;-2.01;83.69;100247.34;5087930;28;20039;-76
2021/01/28 09:10:35;;;;;;;3.78;1.70;;;;;;;-2.07;83.29;100248.16;5088526;28;20020;-76
2021/01/28 09:13:33;;;;;;;4.32;1.60;;;;;;;-2.07;83.08;100247.34;5085676;28;20032;-76
2021/01/28 09:16:19;;;;;;;2.97;2.03;;;;;;;-2.05;83.09;100254.13;5047158;28;20041;-76
2021/01/28 09:18:46;;;;;;;4.00;2.00;;;;;;;-1.98;83.62;100253.31;5086476;28;20079;-75
2021/01/28 09:21:15;;;;;;;3.45;1.50;;;;;;;-1.98;83.35;100259.47;5072560;28;20017;-76
2021/01/28 09:24:16;;;;;;;1.90;1.63;;;;;;;-1.96;82.94;100267.28;5085385;28;20028;-76
2021/01/28 09:26:42;;;;;;;3.05;1.70;;;;;;;-1.93;83.17;100264.22;5090138;28;20031;-77
2021/01/28 09:29:09;;;;;;;2.97;1.38;;;;;;;-1.91;83.24;100259.47;5090130;28;20028;-77
2021/01/28 09:31:35;;;;;;;3.33;1.30;;;;;;;-1.99;82.75;100263.19;5067811;28;20528;-75
2021/01/28 09:34:15;;;;;;;1.98;1.20;;;;;;;-2.11;82.83;100254.94;5088124;28;20036;-76
2021/01/28 09:36:41;;;;;;;2.80;1.83;;;;;;;-2.12;82.85;100257.81;5091438;28;20028;-77
2021/01/28 09:39:15;;;;;;;3.75;1.90;;;;;;;-2.13;83.21;100267.69;5072819;28;20073;-76
2021/01/28 09:41:46;;;;;;;3.78;1.80;;;;;;;-2.11;82.96;100262.13;5090564;28;20040;-77
2021/01/28 09:44:34;;;;;;;3.17;1.73;;;;;;;-2.17;82.61;100257.59;5082377;28;20028;-76
2021/01/28 09:47:11;;;;;;;4.15;1.50;;;;;;;-2.21;82.66;100259.88;5084921;28;20339;-77
2021/01/28 09:49:37;;;;;;;3.83;1.42;;;;;;;-2.22;82.62;100252.06;5089333;28;20024;-78
2021/01/28 09:52:03;;;;;;;1.70;1.20;;;;;;;-2.25;82.86;100258.63;5083264;28;20031;-77
2021/01/28 09:54:33;;;;;;;4.43;1.20;;;;;;;-2.26;82.67;100263.13;5085980;28;20020;-76
2021/01/28 09:56:59;;;;;;;1.77;1.00;;;;;;;-2.24;82.84;100258.44;5087272;28;20031;-77
2021/01/28 09:59:24;;;;;;;2.30;0.93;;;;;;;-2.22;83.13;100258.22;5071353;28;20380;-76
2021/01/28 10:01:50;;;;;;;4.85;1.05;;;;;;;-2.21;82.64;100267.03;5088950;28;20495;-78
2021/01/28 10:04:15;;;;;;;1.80;1.00;;;;;;;-2.22;82.47;100270.75;5086341;28;20035;-76
2021/01/28 10:06:41;;;;;;;3.17;1.10;;;;;;;-2.20;82.53;100271.38;5087744;28;20054;-76
2021/01/28 10:09:07;;;;;;;1.90;1.08;;;;;;;-2.16;82.41;100272.59;5083069;28;20020;-77
2021/01/28 10:11:32;;;;;;;3.78;1.35;;;;;;;-2.11;82.60;100275.47;5087832;28;20119;-77
2021/01/28 10:13:58;;;;;;;2.25;0.80;;;;;;;-2.03;82.32;100272.63;5087286;28;20023;-78
2021/01/28 10:16:24;;;;;;;1.88;1.35;;;;;;;-1.91;82.75;100272.81;5069488;28;20033;-78
2021/01/28 10:18:50;;;;;;;1.70;1.02;;;;;;;-1.79;82.21;100272.00;5074270;28;20499;-77
2021/01/28 10:21:15;;;;;;;2.65;1.08;;;;;;;-1.65;82.21;100277.38;5084417;28;20028;-78
2021/01/28 10:23:41;;;;;;;2.08;0.90;;;;;;;-1.56;82.33;100270.75;5091125;28;20035;-77
2021/01/28 10:26:06;;;;;;;2.08;1.13;;;;;;;-1.43;82.07;100273.44;5085796;28;20031;-78
2021/01/28 10:28:31;;;;;;;4.45;1.58;;;;;;;-1.36;82.00;100274.25;5086804;28;20020;-78
2021/01/28 10:30:57;;;;;;;4.70;2.65;;;;;;;-1.29;82.11;100270.75;5085716;28;20381;-78
2021/01/28 10:33:25;;;;;;;3.60;1.30;;;;;;;-1.26;81.89;100275.66;5090181;28;20059;-76
2021/01/28 10:35:51;;;;;;;2.25;1.20;;;;;;;-1.20;81.76;100274.81;5087974;28;20027;-76
2021/01/28 10:38:16;;;;;;;2.13;1.10;;;;;;;-1.12;81.93;100282.63;5077755;28;20036;-76
2021/01/28 10:40:42;;;;;;;2.60;1.08;;;;;;;-1.02;81.97;100274.19;5082359;28;20055;-78
2021/01/28 10:43:07;;;;;;;4.65;1.13;;;;;;;-0.96;81.73;100279.50;5080929;28;20023;-82
2021/01/28 10:45:34;;;;;;;3.00;1.13;;;;;;;-0.93;81.52;100265.72;5079524;28;20039;-80
2021/01/28 10:48:01;;;;;;;2.47;0.68;;;;;;;-0.92;81.37;100264.69;5085462;28;20033;-80
2021/01/28 10:50:27;;;;;;;3.95;1.02;;;;;;;-1.04;81.08;100261.00;5083249;28;20020;-80
2021/01/28 10:52:53;;;;;;;1.67;0.90;;;;;;;-1.09;81.18;100268.84;5087560;28;20043;-81
2021/01/28 10:55:18;;;;;;;3.67;1.05;;;;;;;-1.13;81.22;100262.28;5086076;28;20487;-81
2021/01/28 10:57:44;;;;;;;4.28;1.42;;;;;;;-1.23;80.91;100261.88;5072283;28;20020;-80
2021/01/28 11:00:10;;;;;;;1.80;1.13;;;;;;;-1.31;81.05;100264.78;5089175;28;20027;-82
2021/01/28 11:02:37;;;;;;;4.07;1.10;;;;;;;-1.32;81.05;100257.78;5090112;28;20032;-81
2021/01/28 11:05:07;;;;;;;3.10;1.00;;;;;;;-1.34;81.39;100255.31;5074439;28;20020;-80
2021/01/28 11:07:32;;;;;;;2.97;1.30;;;;;;;-1.34;81.18;100255.31;5082825;28;20028;-82
2021/01/28 11:09:57;;;;;;;3.03;1.15;;;;;;;-1.32;81.09;100252.44;5091048;28;20023;-79
2021/01/28 11:12:23;;;;;;;2.22;1.33;;;;;;;-1.29;81.38;100246.69;5083221;28;20029;-81
2021/01/28 11:14:49;;;;;;;2.92;1.48;;;;;;;-1.28;81.04;100261.69;5076076;28;20548;-81
2021/01/28 11:17:14;;;;;;;2.95;0.90;;;;;;;-1.29;81.08;100252.84;5089722;28;20032;-80
2021/01/28 11:19:39;;;;;;;2.17;1.08;;;;;;;-1.30;80.90;100255.75;5089580;28;20031;-79
2021/01/28 11:22:05;;;;;;;2.50;1.30;;;;;;;-1.33;80.88;100258.84;5089631;28;20042;-81
2021/01/28 11:24:30;;;;;;;4.07;1.60;;;;;;;-1.33;80.78;100261.50;5091620;28;20036;-80
2021/01/28 11:26:57;;;;;;;3.08;1.40;;;;;;;-1.33;80.72;100258.84;5085720;28;20389;-80
2021/01/28 11:29:24;;;;;;;5.05;1.40;;;;;;;-1.30;80.63;100261.91;5088285;28;20243;-80
2021/01/28 11:31:50;;;;;;;5.32;2.05;;;;;;;-1.24;81.03;100257.56;5088900;28;20107;-79
2021/01/28 11:34:16;;;;;;;3.70;1.00;;;;;;;-1.19;80.97;100257.78;5085200;28;20021;-80
2021/01/28 11:36:41;;;;;;;2.88;1.38;;;;;;;-1.17;80.66;100258.38;5083800;28;20051;-80
2021/01/28 11:39:07;;;;;;;2.85;1.13;;;;;;;-1.10;80.70;100261.03;5084802;28;20044;-80